KCSV/CSV METAR and TAF weather

Enter ICAO airport designator
Station Type Date Time Source
KCSV METAR 2021/07/29 02:53 UTC NOAA

KCSV 290253Z AUTO 00000KT 6SM BR CLR 21/21 A3013 RMK AO2 SLP181 T02110206 53013


Station Type Date Time Source
KCSV Decoded METAR 2021/07/29 02:53 UTC NOAA

CROSSVILLE MEMORIAL AIRPORT , TN, United States (KCSV) 35-57N 85-05W 570M
Jul 28, 2021 - 10:53 PM EDT / 2021.07.29 0253 UTC
Wind: Calm:0
Visibility: 6 mile(s):0
Sky conditions: clear
Weather: mist
Temperature: 70.0 F (21.1 C)
Dew Point: 69.1 F (20.6 C)
Relative Humidity: 96%
Pressure (altimeter): 30.13 in. Hg (1020 hPa)
Pressure tendency: 0.04 inches (1.3 hPa) higher than three hours ago
ob: KCSV 290253Z AUTO 00000KT 6SM BR CLR 21/21 A3013 RMK AO2 SLP181 T02110206 53013
cycle: 3

Station Type Date Time Source
KCSV TAF 2021/07/28 18:21 UTC NOAA

TAF KCSV 281720Z 2818/2918 01005KT P6SM SKC
FM290700 00000KT 4SM BR SKC
FM291300 29005KT P6SM SKC

Example: see airport list